sensor_id;sensor_type;location;lat;lon;timestamp;temperature;humidity
16728;DHT22;8482;54.396;18.590;2022-09-21T00:01:18;13.50;99.90
16728;DHT22;8482;54.396;18.590;2022-09-21T00:03:46;13.50;99.90
16728;DHT22;8482;54.396;18.590;2022-09-21T00:06:19;13.50;99.90
16728;DHT22;8482;54.396;18.590;2022-09-21T00:08:46;13.50;99.90
16728;DHT22;8482;54.396;18.590;2022-09-21T00:11:15;13.50;99.90
16728;DHT22;8482;54.396;18.590;2022-09-21T00:13:43;13.50;99.90
16728;DHT22;8482;54.396;18.590;2022-09-21T00:16:11;13.40;99.90
16728;DHT22;8482;54.396;18.590;2022-09-21T00:18:38;13.50;99.90
16728;DHT22;8482;54.396;18.590;2022-09-21T00:21:08;13.50;99.90
16728;DHT22;8482;54.396;18.590;2022-09-21T00:23:36;13.40;99.90
16728;DHT22;8482;54.396;18.590;2022-09-21T00:26:10;13.40;99.90
16728;DHT22;8482;54.396;18.590;2022-09-21T00:28:38;13.50;99.90
16728;DHT22;8482;54.396;18.590;2022-09-21T00:31:07;13.50;99.90
16728;DHT22;8482;54.396;18.590;2022-09-21T00:33:36;13.50;99.90
16728;DHT22;8482;54.396;18.590;2022-09-21T00:36:09;13.50;99.90
16728;DHT22;8482;54.396;18.590;2022-09-21T00:38:37;13.40;99.90
16728;DHT22;8482;54.396;18.590;2022-09-21T00:41:05;13.50;99.90
16728;DHT22;8482;54.396;18.590;2022-09-21T00:46:50;13.40;99.90
16728;DHT22;8482;54.396;18.590;2022-09-21T00:49:20;13.40;99.90
16728;DHT22;8482;54.396;18.590;2022-09-21T00:51:48;13.40;99.90
16728;DHT22;8482;54.396;18.590;2022-09-21T00:54:24;13.30;99.90
16728;DHT22;8482;54.396;18.590;2022-09-21T00:56:58;13.30;99.90
16728;DHT22;8482;54.396;18.590;2022-09-21T00:59:26;13.30;99.90
16728;DHT22;8482;54.396;18.590;2022-09-21T01:01:52;13.20;99.90
16728;DHT22;8482;54.396;18.590;2022-09-21T01:04:19;13.20;99.90
16728;DHT22;8482;54.396;18.590;2022-09-21T01:06:46;13.20;99.90
16728;DHT22;8482;54.396;18.590;2022-09-21T01:09:13;13.20;99.90
16728;DHT22;8482;54.396;18.590;2022-09-21T01:12:13;13.20;99.90
16728;DHT22;8482;54.396;18.590;2022-09-21T01:18:04;13.10;99.90
16728;DHT22;8482;54.396;18.590;2022-09-21T01:21:10;13.10;99.90
16728;DHT22;8482;54.396;18.590;2022-09-21T01:27:01;13.00;99.90
16728;DHT22;8482;54.396;18.590;2022-09-21T01:30:06;13.10;99.90
16728;DHT22;8482;54.396;18.590;2022-09-21T01:32:41;13.00;99.90
16728;DHT22;8482;54.396;18.590;2022-09-21T01:40:44;13.00;99.90
16728;DHT22;8482;54.396;18.590;2022-09-21T01:43:20;13.00;99.90
16728;DHT22;8482;54.396;18.590;2022-09-21T01:45:51;13.00;99.90
16728;DHT22;8482;54.396;18.590;2022-09-21T01:48:22;13.00;99.90
16728;DHT22;8482;54.396;18.590;2022-09-21T01:50:53;13.00;99.90
16728;DHT22;8482;54.396;18.590;2022-09-21T01:53:38;13.00;99.90
16728;DHT22;8482;54.396;18.590;2022-09-21T01:59:08;13.00;99.90
16728;DHT22;8482;54.396;18.590;2022-09-21T02:01:51;13.00;99.90
16728;DHT22;8482;54.396;18.590;2022-09-21T02:04:20;13.00;99.90
16728;DHT22;8482;54.396;18.590;2022-09-21T02:06:48;13.00;99.90
16728;DHT22;8482;54.396;18.590;2022-09-21T02:09:16;13.00;99.90
16728;DHT22;8482;54.396;18.590;2022-09-21T02:11:42;13.00;99.90
16728;DHT22;8482;54.396;18.590;2022-09-21T02:14:15;13.00;99.90
16728;DHT22;8482;54.396;18.590;2022-09-21T02:16:59;13.00;99.90
16728;DHT22;8482;54.396;18.590;2022-09-21T02:25:22;13.00;99.90
16728;DHT22;8482;54.396;18.590;2022-09-21T02:28:27;13.00;99.90
16728;DHT22;8482;54.396;18.590;2022-09-21T02:31:19;13.10;99.90
16728;DHT22;8482;54.396;18.590;2022-09-21T02:37:03;13.00;99.90
16728;DHT22;8482;54.396;18.590;2022-09-21T02:42:13;12.90;99.90
16728;DHT22;8482;54.396;18.590;2022-09-21T02:45:18;12.90;99.90
16728;DHT22;8482;54.396;18.590;2022-09-21T02:48:04;12.90;99.90
16728;DHT22;8482;54.396;18.590;2022-09-21T02:50:46;12.90;99.90
16728;DHT22;8482;54.396;18.590;2022-09-21T02:53:22;12.80;99.90
16728;DHT22;8482;54.396;18.590;2022-09-21T02:55:54;12.80;99.90
16728;DHT22;8482;54.396;18.590;2022-09-21T02:58:24;12.80;99.90
16728;DHT22;8482;54.396;18.590;2022-09-21T03:00:54;12.80;99.90
16728;DHT22;8482;54.396;18.590;2022-09-21T03:03:22;12.70;99.90
16728;DHT22;8482;54.396;18.590;2022-09-21T03:05:52;12.80;99.90
16728;DHT22;8482;54.396;18.590;2022-09-21T03:08:20;12.70;99.90
16728;DHT22;8482;54.396;18.590;2022-09-21T03:10:46;12.70;99.90
16728;DHT22;8482;54.396;18.590;2022-09-21T03:13:15;12.70;99.90
16728;DHT22;8482;54.396;18.590;2022-09-21T03:15:41;12.70;99.90
16728;DHT22;8482;54.396;18.590;2022-09-21T03:18:08;12.70;99.90
16728;DHT22;8482;54.396;18.590;2022-09-21T03:20:39;12.70;99.90
16728;DHT22;8482;54.396;18.590;2022-09-21T03:23:11;12.70;99.90
16728;DHT22;8482;54.396;18.590;2022-09-21T03:25:37;12.60;99.90
16728;DHT22;8482;54.396;18.590;2022-09-21T03:28:03;12.70;99.90
16728;DHT22;8482;54.396;18.590;2022-09-21T03:30:29;12.70;99.90
16728;DHT22;8482;54.396;18.590;2022-09-21T03:32:56;12.70;99.90
16728;DHT22;8482;54.396;18.590;2022-09-21T03:35:23;12.70;99.90
16728;DHT22;8482;54.396;18.590;2022-09-21T03:37:51;12.70;99.90
16728;DHT22;8482;54.396;18.590;2022-09-21T03:40:17;12.70;99.90
16728;DHT22;8482;54.396;18.590;2022-09-21T03:42:44;12.70;99.90
16728;DHT22;8482;54.396;18.590;2022-09-21T03:45:10;12.70;99.90
16728;DHT22;8482;54.396;18.590;2022-09-21T03:47:38;12.80;99.90
16728;DHT22;8482;54.396;18.590;2022-09-21T03:50:07;12.80;99.90
16728;DHT22;8482;54.396;18.590;2022-09-21T03:52:34;12.80;99.90
16728;DHT22;8482;54.396;18.590;2022-09-21T03:55:02;12.80;99.90
16728;DHT22;8482;54.396;18.590;2022-09-21T03:57:31;12.80;99.90
16728;DHT22;8482;54.396;18.590;2022-09-21T03:59:59;12.80;99.90
16728;DHT22;8482;54.396;18.590;2022-09-21T04:02:26;12.80;99.90
16728;DHT22;8482;54.396;18.590;2022-09-21T04:04:52;12.80;99.90
16728;DHT22;8482;54.396;18.590;2022-09-21T04:07:18;12.80;99.90
16728;DHT22;8482;54.396;18.590;2022-09-21T04:09:44;12.80;99.90
16728;DHT22;8482;54.396;18.590;2022-09-21T04:12:09;12.80;99.90
16728;DHT22;8482;54.396;18.590;2022-09-21T04:14:35;12.80;99.90
16728;DHT22;8482;54.396;18.590;2022-09-21T04:17:01;12.80;99.90
16728;DHT22;8482;54.396;18.590;2022-09-21T04:19:27;12.80;99.90
16728;DHT22;8482;54.396;18.590;2022-09-21T04:21:53;12.80;99.90
16728;DHT22;8482;54.396;18.590;2022-09-21T04:24:20;12.80;99.90
16728;DHT22;8482;54.396;18.590;2022-09-21T04:26:47;12.90;99.90
16728;DHT22;8482;54.396;18.590;2022-09-21T04:29:14;12.90;99.90
16728;DHT22;8482;54.396;18.590;2022-09-21T04:31:41;12.90;99.90
16728;DHT22;8482;54.396;18.590;2022-09-21T04:34:08;12.90;99.90
16728;DHT22;8482;54.396;18.590;2022-09-21T04:36:37;12.90;99.90
16728;DHT22;8482;54.396;18.590;2022-09-21T04:39:04;12.90;99.90
16728;DHT22;8482;54.396;18.590;2022-09-21T04:41:30;12.90;99.90
16728;DHT22;8482;54.396;18.590;2022-09-21T04:43:56;12.90;99.90
16728;DHT22;8482;54.396;18.590;2022-09-21T04:46:22;13.00;99.90
16728;DHT22;8482;54.396;18.590;2022-09-21T04:48:48;12.90;99.90
16728;DHT22;8482;54.396;18.590;2022-09-21T04:51:15;12.90;99.90
16728;DHT22;8482;54.396;18.590;2022-09-21T04:53:42;12.90;99.90
16728;DHT22;8482;54.396;18.590;2022-09-21T04:56:09;12.90;99.90
16728;DHT22;8482;54.396;18.590;2022-09-21T04:58:39;12.90;99.90
16728;DHT22;8482;54.396;18.590;2022-09-21T05:01:04;12.90;99.90
16728;DHT22;8482;54.396;18.590;2022-09-21T05:03:32;12.90;99.90
16728;DHT22;8482;54.396;18.590;2022-09-21T05:05:58;12.90;99.90
16728;DHT22;8482;54.396;18.590;2022-09-21T05:08:25;12.90;99.90
16728;DHT22;8482;54.396;18.590;2022-09-21T05:11:16;12.90;99.90
16728;DHT22;8482;54.396;18.590;2022-09-21T05:13:46;12.90;99.90
16728;DHT22;8482;54.396;18.590;2022-09-21T05:16:13;12.90;99.90
16728;DHT22;8482;54.396;18.590;2022-09-21T05:18:40;12.90;99.90
16728;DHT22;8482;54.396;18.590;2022-09-21T05:21:06;12.90;99.90
16728;DHT22;8482;54.396;18.590;2022-09-21T05:23:32;12.90;99.90
16728;DHT22;8482;54.396;18.590;2022-09-21T05:25:58;12.90;99.90
16728;DHT22;8482;54.396;18.590;2022-09-21T05:28:25;12.90;99.90
16728;DHT22;8482;54.396;18.590;2022-09-21T05:39:36;13.00;99.90
16728;DHT22;8482;54.396;18.590;2022-09-21T05:42:02;13.00;99.90
16728;DHT22;8482;54.396;18.590;2022-09-21T05:44:29;13.00;99.90
16728;DHT22;8482;54.396;18.590;2022-09-21T05:47:03;13.00;99.90
16728;DHT22;8482;54.396;18.590;2022-09-21T05:49:54;13.00;99.90
16728;DHT22;8482;54.396;18.590;2022-09-21T05:58:20;13.10;99.90
16728;DHT22;8482;54.396;18.590;2022-09-21T06:04:10;13.00;99.90
16728;DHT22;8482;54.396;18.590;2022-09-21T06:06:39;13.10;99.90
16728;DHT22;8482;54.396;18.590;2022-09-21T06:09:05;13.10;99.90
16728;DHT22;8482;54.396;18.590;2022-09-21T06:11:31;13.10;99.90
16728;DHT22;8482;54.396;18.590;2022-09-21T06:13:59;13.10;99.90
16728;DHT22;8482;54.396;18.590;2022-09-21T06:16:38;13.20;99.90
16728;DHT22;8482;54.396;18.590;2022-09-21T06:19:05;13.20;99.90
16728;DHT22;8482;54.396;18.590;2022-09-21T06:21:31;13.20;99.90
16728;DHT22;8482;54.396;18.590;2022-09-21T06:23:57;13.20;99.90
16728;DHT22;8482;54.396;18.590;2022-09-21T06:26:23;13.20;99.90
16728;DHT22;8482;54.396;18.590;2022-09-21T06:28:48;13.30;99.90
16728;DHT22;8482;54.396;18.590;2022-09-21T06:31:14;13.30;99.90
16728;DHT22;8482;54.396;18.590;2022-09-21T06:33:40;13.30;99.90
16728;DHT22;8482;54.396;18.590;2022-09-21T06:36:06;13.30;99.90
16728;DHT22;8482;54.396;18.590;2022-09-21T06:38:31;13.30;99.90
16728;DHT22;8482;54.396;18.590;2022-09-21T06:41:03;13.30;99.90
16728;DHT22;8482;54.396;18.590;2022-09-21T06:43:30;13.40;99.90
16728;DHT22;8482;54.396;18.590;2022-09-21T06:45:59;13.40;99.90
16728;DHT22;8482;54.396;18.590;2022-09-21T06:48:27;13.40;99.90
16728;DHT22;8482;54.396;18.590;2022-09-21T06:50:58;13.40;99.90
16728;DHT22;8482;54.396;18.590;2022-09-21T06:53:25;13.50;99.90
16728;DHT22;8482;54.396;18.590;2022-09-21T06:55:52;13.50;99.90
16728;DHT22;8482;54.396;18.590;2022-09-21T06:58:18;13.50;99.90
16728;DHT22;8482;54.396;18.590;2022-09-21T07:00:45;13.50;99.90
16728;DHT22;8482;54.396;18.590;2022-09-21T07:03:11;13.60;99.90
16728;DHT22;8482;54.396;18.590;2022-09-21T07:05:44;13.60;99.90
16728;DHT22;8482;54.396;18.590;2022-09-21T07:08:10;13.60;99.90
16728;DHT22;8482;54.396;18.590;2022-09-21T07:10:36;13.70;99.90
16728;DHT22;8482;54.396;18.590;2022-09-21T07:13:03;13.70;99.90
16728;DHT22;8482;54.396;18.590;2022-09-21T07:15:31;13.70;99.90
16728;DHT22;8482;54.396;18.590;2022-09-21T07:17:57;13.70;99.90
16728;DHT22;8482;54.396;18.590;2022-09-21T07:20:23;13.70;99.90
16728;DHT22;8482;54.396;18.590;2022-09-21T07:22:49;13.80;99.90
16728;DHT22;8482;54.396;18.590;2022-09-21T07:25:15;13.80;99.90
16728;DHT22;8482;54.396;18.590;2022-09-21T07:27:41;13.90;99.90
16728;DHT22;8482;54.396;18.590;2022-09-21T07:30:08;13.90;99.90
16728;DHT22;8482;54.396;18.590;2022-09-21T07:32:34;13.90;99.90
16728;DHT22;8482;54.396;18.590;2022-09-21T07:35:01;13.90;99.90
16728;DHT22;8482;54.396;18.590;2022-09-21T07:37:27;13.90;99.90
16728;DHT22;8482;54.396;18.590;2022-09-21T07:39:55;13.90;99.90
16728;DHT22;8482;54.396;18.590;2022-09-21T07:42:21;13.90;99.90
16728;DHT22;8482;54.396;18.590;2022-09-21T07:44:47;13.90;99.90
16728;DHT22;8482;54.396;18.590;2022-09-21T07:47:14;13.90;99.90
16728;DHT22;8482;54.396;18.590;2022-09-21T07:49:40;14.00;99.90
16728;DHT22;8482;54.396;18.590;2022-09-21T07:52:07;14.00;99.90
16728;DHT22;8482;54.396;18.590;2022-09-21T07:54:34;14.00;99.90
16728;DHT22;8482;54.396;18.590;2022-09-21T07:57:01;14.00;99.90
16728;DHT22;8482;54.396;18.590;2022-09-21T07:59:46;14.10;99.90
16728;DHT22;8482;54.396;18.590;2022-09-21T08:02:12;14.10;99.90
16728;DHT22;8482;54.396;18.590;2022-09-21T08:04:37;14.10;99.90
16728;DHT22;8482;54.396;18.590;2022-09-21T08:07:03;14.20;99.90
16728;DHT22;8482;54.396;18.590;2022-09-21T08:09:29;14.20;99.90
16728;DHT22;8482;54.396;18.590;2022-09-21T08:11:55;14.30;99.90
16728;DHT22;8482;54.396;18.590;2022-09-21T08:14:21;14.30;99.90
16728;DHT22;8482;54.396;18.590;2022-09-21T08:16:47;14.40;99.90
16728;DHT22;8482;54.396;18.590;2022-09-21T08:19:13;14.40;99.90
16728;DHT22;8482;54.396;18.590;2022-09-21T08:21:42;14.50;99.90
16728;DHT22;8482;54.396;18.590;2022-09-21T08:24:08;14.50;99.90
16728;DHT22;8482;54.396;18.590;2022-09-21T08:26:35;14.50;99.90
16728;DHT22;8482;54.396;18.590;2022-09-21T08:29:01;14.60;99.90
16728;DHT22;8482;54.396;18.590;2022-09-21T08:31:27;14.60;99.90
16728;DHT22;8482;54.396;18.590;2022-09-21T08:33:55;14.70;99.90
16728;DHT22;8482;54.396;18.590;2022-09-21T08:36:22;14.70;99.90
16728;DHT22;8482;54.396;18.590;2022-09-21T08:38:48;14.70;99.90
16728;DHT22;8482;54.396;18.590;2022-09-21T08:44:42;14.80;99.90
16728;DHT22;8482;54.396;18.590;2022-09-21T08:47:18;14.80;99.90
16728;DHT22;8482;54.396;18.590;2022-09-21T08:49:55;14.80;99.90
16728;DHT22;8482;54.396;18.590;2022-09-21T08:52:25;14.90;99.90
16728;DHT22;8482;54.396;18.590;2022-09-21T08:54:57;14.80;99.90
16728;DHT22;8482;54.396;18.590;2022-09-21T08:57:29;14.90;99.90
16728;DHT22;8482;54.396;18.590;2022-09-21T08:59:58;14.90;99.90
16728;DHT22;8482;54.396;18.590;2022-09-21T09:05:45;15.00;99.90
16728;DHT22;8482;54.396;18.590;2022-09-21T09:08:41;15.10;99.90
16728;DHT22;8482;54.396;18.590;2022-09-21T09:17:50;15.20;99.90
16728;DHT22;8482;54.396;18.590;2022-09-21T09:20:33;15.20;99.90
16728;DHT22;8482;54.396;18.590;2022-09-21T09:23:19;15.30;99.90
16728;DHT22;8482;54.396;18.590;2022-09-21T09:25:55;15.30;99.90
16728;DHT22;8482;54.396;18.590;2022-09-21T09:28:40;15.30;99.90
16728;DHT22;8482;54.396;18.590;2022-09-21T09:31:24;15.40;99.90
16728;DHT22;8482;54.396;18.590;2022-09-21T09:36:46;15.40;99.90
16728;DHT22;8482;54.396;18.590;2022-09-21T09:39:16;15.40;99.90
16728;DHT22;8482;54.396;18.590;2022-09-21T09:44:44;15.40;99.90
16728;DHT22;8482;54.396;18.590;2022-09-21T09:50:39;15.50;99.90
16728;DHT22;8482;54.396;18.590;2022-09-21T09:53:19;15.60;99.90
16728;DHT22;8482;54.396;18.590;2022-09-21T09:55:50;15.60;99.90
16728;DHT22;8482;54.396;18.590;2022-09-21T09:58:23;15.70;99.90
16728;DHT22;8482;54.396;18.590;2022-09-21T10:00:57;15.70;99.90
16728;DHT22;8482;54.396;18.590;2022-09-21T10:03:26;15.70;99.90
16728;DHT22;8482;54.396;18.590;2022-09-21T10:05:53;15.70;99.90
16728;DHT22;8482;54.396;18.590;2022-09-21T10:08:41;15.70;99.90
16728;DHT22;8482;54.396;18.590;2022-09-21T10:11:13;15.70;99.90
16728;DHT22;8482;54.396;18.590;2022-09-21T10:13:42;15.70;99.90
16728;DHT22;8482;54.396;18.590;2022-09-21T10:16:18;15.70;99.90
16728;DHT22;8482;54.396;18.590;2022-09-21T10:18:53;15.70;99.90
16728;DHT22;8482;54.396;18.590;2022-09-21T10:26:51;15.70;99.90
16728;DHT22;8482;54.396;18.590;2022-09-21T10:32:02;15.70;99.90
16728;DHT22;8482;54.396;18.590;2022-09-21T10:34:32;15.80;99.90
16728;DHT22;8482;54.396;18.590;2022-09-21T10:37:01;15.80;99.90
16728;DHT22;8482;54.396;18.590;2022-09-21T10:40:03;15.80;99.90
16728;DHT22;8482;54.396;18.590;2022-09-21T10:42:40;15.80;99.90
16728;DHT22;8482;54.396;18.590;2022-09-21T10:45:16;15.80;99.90
16728;DHT22;8482;54.396;18.590;2022-09-21T10:47:45;15.90;99.90
16728;DHT22;8482;54.396;18.590;2022-09-21T10:50:47;16.00;99.90
16728;DHT22;8482;54.396;18.590;2022-09-21T10:53:32;16.00;99.90
16728;DHT22;8482;54.396;18.590;2022-09-21T11:01:55;16.20;99.90
16728;DHT22;8482;54.396;18.590;2022-09-21T11:04:47;16.20;99.90
16728;DHT22;8482;54.396;18.590;2022-09-21T11:07:31;16.20;99.90
16728;DHT22;8482;54.396;18.590;2022-09-21T11:16:15;16.40;99.90
16728;DHT22;8482;54.396;18.590;2022-09-21T11:19:07;16.40;99.90
16728;DHT22;8482;54.396;18.590;2022-09-21T11:22:14;16.40;99.90
16728;DHT22;8482;54.396;18.590;2022-09-21T11:28:16;16.40;99.90
16728;DHT22;8482;54.396;18.590;2022-09-21T11:31:01;16.30;99.90
16728;DHT22;8482;54.396;18.590;2022-09-21T11:36:59;16.30;99.90
16728;DHT22;8482;54.396;18.590;2022-09-21T11:39:53;16.20;99.90
16728;DHT22;8482;54.396;18.590;2022-09-21T11:45:37;16.20;99.90
16728;DHT22;8482;54.396;18.590;2022-09-21T11:54:21;16.20;99.90
16728;DHT22;8482;54.396;18.590;2022-09-21T12:03:48;16.20;99.90
16728;DHT22;8482;54.396;18.590;2022-09-21T12:06:57;16.20;99.90
16728;DHT22;8482;54.396;18.590;2022-09-21T12:12:33;16.40;99.90
16728;DHT22;8482;54.396;18.590;2022-09-21T12:15:25;16.50;99.90
16728;DHT22;8482;54.396;18.590;2022-09-21T12:18:21;16.60;99.90
16728;DHT22;8482;54.396;18.590;2022-09-21T12:23:40;16.90;99.90
16728;DHT22;8482;54.396;18.590;2022-09-21T12:26:14;17.00;99.90
16728;DHT22;8482;54.396;18.590;2022-09-21T12:28:51;17.00;99.90
16728;DHT22;8482;54.396;18.590;2022-09-21T12:31:50;17.00;99.90
16728;DHT22;8482;54.396;18.590;2022-09-21T12:34:50;17.00;99.90
16728;DHT22;8482;54.396;18.590;2022-09-21T12:37:31;17.00;99.90
16728;DHT22;8482;54.396;18.590;2022-09-21T12:40:22;17.00;99.90
16728;DHT22;8482;54.396;18.590;2022-09-21T12:45:45;17.00;99.90
16728;DHT22;8482;54.396;18.590;2022-09-21T12:48:35;17.00;99.90
16728;DHT22;8482;54.396;18.590;2022-09-21T12:51:21;17.00;99.90
16728;DHT22;8482;54.396;18.590;2022-09-21T12:53:56;16.90;99.90
16728;DHT22;8482;54.396;18.590;2022-09-21T12:56:38;16.90;99.90
16728;DHT22;8482;54.396;18.590;2022-09-21T12:59:24;16.90;99.90
16728;DHT22;8482;54.396;18.590;2022-09-21T13:02:13;16.90;99.90
16728;DHT22;8482;54.396;18.590;2022-09-21T13:16:36;17.50;99.90
16728;DHT22;8482;54.396;18.590;2022-09-21T13:21:39;17.70;99.90
16728;DHT22;8482;54.396;18.590;2022-09-21T13:26:56;17.60;99.90
16728;DHT22;8482;54.396;18.590;2022-09-21T13:29:34;17.50;99.90
16728;DHT22;8482;54.396;18.590;2022-09-21T13:32:22;17.60;99.90
16728;DHT22;8482;54.396;18.590;2022-09-21T13:34:48;17.60;99.90
16728;DHT22;8482;54.396;18.590;2022-09-21T13:39:44;17.60;99.90
16728;DHT22;8482;54.396;18.590;2022-09-21T13:47:45;17.70;99.90
16728;DHT22;8482;54.396;18.590;2022-09-21T13:50:23;17.80;99.90
16728;DHT22;8482;54.396;18.590;2022-09-21T13:52:57;17.70;99.90
16728;DHT22;8482;54.396;18.590;2022-09-21T13:55:49;17.70;99.90
16728;DHT22;8482;54.396;18.590;2022-09-21T14:01:11;17.80;99.90
16728;DHT22;8482;54.396;18.590;2022-09-21T14:03:44;17.70;99.90
16728;DHT22;8482;54.396;18.590;2022-09-21T14:06:24;17.80;99.80
16728;DHT22;8482;54.396;18.590;2022-09-21T14:08:59;17.90;99.90
16728;DHT22;8482;54.396;18.590;2022-09-21T14:27:27;18.40;99.10
16728;DHT22;8482;54.396;18.590;2022-09-21T14:30:03;18.40;99.10
16728;DHT22;8482;54.396;18.590;2022-09-21T14:32:51;18.30;99.40
16728;DHT22;8482;54.396;18.590;2022-09-21T14:35:39;18.20;99.50
16728;DHT22;8482;54.396;18.590;2022-09-21T14:38:19;18.10;99.60
16728;DHT22;8482;54.396;18.590;2022-09-21T14:40:51;18.00;99.60
16728;DHT22;8482;54.396;18.590;2022-09-21T14:43:24;17.90;99.70
16728;DHT22;8482;54.396;18.590;2022-09-21T14:46:07;17.80;99.80
16728;DHT22;8482;54.396;18.590;2022-09-21T14:49:03;17.70;99.60
16728;DHT22;8482;54.396;18.590;2022-09-21T14:52:17;17.60;99.50
16728;DHT22;8482;54.396;18.590;2022-09-21T14:59:02;17.30;99.30
16728;DHT22;8482;54.396;18.590;2022-09-21T15:05:32;17.10;99.90
16728;DHT22;8482;54.396;18.590;2022-09-21T15:19:35;16.90;99.90
16728;DHT22;8482;54.396;18.590;2022-09-21T15:22:20;16.80;99.90
16728;DHT22;8482;54.396;18.590;2022-09-21T15:24:55;16.70;99.90
16728;DHT22;8482;54.396;18.590;2022-09-21T15:27:28;16.70;99.90
16728;DHT22;8482;54.396;18.590;2022-09-21T15:30:01;16.60;99.90
16728;DHT22;8482;54.396;18.590;2022-09-21T15:32:43;16.50;99.90
16728;DHT22;8482;54.396;18.590;2022-09-21T15:35:21;16.40;99.90
16728;DHT22;8482;54.396;18.590;2022-09-21T15:37:51;16.40;99.90
16728;DHT22;8482;54.396;18.590;2022-09-21T15:40:21;16.30;99.90
16728;DHT22;8482;54.396;18.590;2022-09-21T15:45:30;16.20;99.90
16728;DHT22;8482;54.396;18.590;2022-09-21T15:48:27;16.10;99.90
16728;DHT22;8482;54.396;18.590;2022-09-21T15:51:12;16.10;99.90
16728;DHT22;8482;54.396;18.590;2022-09-21T15:53:56;16.00;99.90
16728;DHT22;8482;54.396;18.590;2022-09-21T15:56:30;15.90;99.90
16728;DHT22;8482;54.396;18.590;2022-09-21T15:59:01;15.90;99.90
16728;DHT22;8482;54.396;18.590;2022-09-21T16:01:41;15.80;99.90
16728;DHT22;8482;54.396;18.590;2022-09-21T16:04:19;15.70;99.90
16728;DHT22;8482;54.396;18.590;2022-09-21T16:07:05;15.70;99.90
16728;DHT22;8482;54.396;18.590;2022-09-21T16:09:47;15.60;99.90
16728;DHT22;8482;54.396;18.590;2022-09-21T16:12:37;15.60;99.90
16728;DHT22;8482;54.396;18.590;2022-09-21T16:15:25;15.50;99.90
16728;DHT22;8482;54.396;18.590;2022-09-21T16:18:50;15.50;99.90
16728;DHT22;8482;54.396;18.590;2022-09-21T16:21:24;15.40;99.90
16728;DHT22;8482;54.396;18.590;2022-09-21T16:23:57;15.40;99.90
16728;DHT22;8482;54.396;18.590;2022-09-21T16:26:38;15.30;99.90
16728;DHT22;8482;54.396;18.590;2022-09-21T16:29:24;15.30;99.90
16728;DHT22;8482;54.396;18.590;2022-09-21T16:32:18;15.30;99.90
16728;DHT22;8482;54.396;18.590;2022-09-21T16:34:48;15.30;99.90
16728;DHT22;8482;54.396;18.590;2022-09-21T16:37:27;15.20;99.90
16728;DHT22;8482;54.396;18.590;2022-09-21T16:39:55;15.20;99.90
16728;DHT22;8482;54.396;18.590;2022-09-21T16:42:24;15.10;99.90
16728;DHT22;8482;54.396;18.590;2022-09-21T16:44:58;15.10;99.90
16728;DHT22;8482;54.396;18.590;2022-09-21T16:47:26;15.00;99.90
16728;DHT22;8482;54.396;18.590;2022-09-21T16:49:58;15.00;99.90
16728;DHT22;8482;54.396;18.590;2022-09-21T16:52:29;15.00;99.90
16728;DHT22;8482;54.396;18.590;2022-09-21T16:54:56;15.00;99.90
16728;DHT22;8482;54.396;18.590;2022-09-21T16:57:23;14.90;99.90
16728;DHT22;8482;54.396;18.590;2022-09-21T16:59:50;14.90;99.90
16728;DHT22;8482;54.396;18.590;2022-09-21T17:02:17;14.90;99.90
16728;DHT22;8482;54.396;18.590;2022-09-21T17:04:43;14.90;99.90
16728;DHT22;8482;54.396;18.590;2022-09-21T17:07:10;14.90;99.90
16728;DHT22;8482;54.396;18.590;2022-09-21T17:09:39;14.80;99.90
16728;DHT22;8482;54.396;18.590;2022-09-21T17:12:10;14.80;99.90
16728;DHT22;8482;54.396;18.590;2022-09-21T17:14:38;14.80;99.90
16728;DHT22;8482;54.396;18.590;2022-09-21T17:17:25;14.70;99.90
16728;DHT22;8482;54.396;18.590;2022-09-21T17:19:52;14.70;99.90
16728;DHT22;8482;54.396;18.590;2022-09-21T17:22:18;14.70;99.90
16728;DHT22;8482;54.396;18.590;2022-09-21T17:24:50;14.70;99.90
16728;DHT22;8482;54.396;18.590;2022-09-21T17:27:23;14.60;99.90
16728;DHT22;8482;54.396;18.590;2022-09-21T17:29:51;14.60;99.90
16728;DHT22;8482;54.396;18.590;2022-09-21T17:32:20;14.60;99.90
16728;DHT22;8482;54.396;18.590;2022-09-21T17:35:30;14.60;99.90
16728;DHT22;8482;54.396;18.590;2022-09-21T17:37:58;14.50;99.90
16728;DHT22;8482;54.396;18.590;2022-09-21T17:40:25;14.50;99.90
16728;DHT22;8482;54.396;18.590;2022-09-21T17:42:55;14.50;99.90
16728;DHT22;8482;54.396;18.590;2022-09-21T17:48:19;14.40;99.90
16728;DHT22;8482;54.396;18.590;2022-09-21T17:50:47;14.40;99.90
16728;DHT22;8482;54.396;18.590;2022-09-21T17:53:14;14.30;99.90
16728;DHT22;8482;54.396;18.590;2022-09-21T18:03:59;14.20;99.90
16728;DHT22;8482;54.396;18.590;2022-09-21T18:06:25;14.10;99.90
16728;DHT22;8482;54.396;18.590;2022-09-21T18:08:52;14.10;99.90
16728;DHT22;8482;54.396;18.590;2022-09-21T18:26:45;13.80;99.90
16728;DHT22;8482;54.396;18.590;2022-09-21T18:29:23;13.80;99.90
16728;DHT22;8482;54.396;18.590;2022-09-21T18:38:01;13.60;99.90
16728;DHT22;8482;54.396;18.590;2022-09-21T18:43:38;13.50;99.90
16728;DHT22;8482;54.396;18.590;2022-09-21T18:49:20;13.40;99.90
16728;DHT22;8482;54.396;18.590;2022-09-21T18:52:14;13.40;99.90
16728;DHT22;8482;54.396;18.590;2022-09-21T18:54:42;13.30;99.90
16728;DHT22;8482;54.396;18.590;2022-09-21T18:57:11;13.30;99.90
16728;DHT22;8482;54.396;18.590;2022-09-21T18:59:39;13.30;99.90
16728;DHT22;8482;54.396;18.590;2022-09-21T19:02:14;13.20;99.90
16728;DHT22;8482;54.396;18.590;2022-09-21T19:04:43;13.20;99.90
16728;DHT22;8482;54.396;18.590;2022-09-21T19:07:36;13.10;99.90
16728;DHT22;8482;54.396;18.590;2022-09-21T19:10:20;13.10;99.90
16728;DHT22;8482;54.396;18.590;2022-09-21T19:16:20;13.00;99.90
16728;DHT22;8482;54.396;18.590;2022-09-21T19:21:57;13.00;99.90
16728;DHT22;8482;54.396;18.590;2022-09-21T19:27:38;13.00;99.90
16728;DHT22;8482;54.396;18.590;2022-09-21T19:30:13;13.00;99.90
16728;DHT22;8482;54.396;18.590;2022-09-21T19:32:47;13.00;99.90
16728;DHT22;8482;54.396;18.590;2022-09-21T19:35:28;13.10;99.90
16728;DHT22;8482;54.396;18.590;2022-09-21T19:37:57;13.10;99.90
16728;DHT22;8482;54.396;18.590;2022-09-21T19:40:28;13.10;99.90
16728;DHT22;8482;54.396;18.590;2022-09-21T19:48:52;13.00;99.90
16728;DHT22;8482;54.396;18.590;2022-09-21T19:52:01;13.00;99.90
16728;DHT22;8482;54.396;18.590;2022-09-21T19:54:24;13.00;99.90
16728;DHT22;8482;54.396;18.590;2022-09-21T19:57:14;12.90;99.90
16728;DHT22;8482;54.396;18.590;2022-09-21T20:00:06;12.90;99.90
16728;DHT22;8482;54.396;18.590;2022-09-21T20:02:56;12.90;99.90
16728;DHT22;8482;54.396;18.590;2022-09-21T20:17:18;12.70;99.90
16728;DHT22;8482;54.396;18.590;2022-09-21T20:22:42;12.60;99.90
16728;DHT22;8482;54.396;18.590;2022-09-21T20:25:14;12.70;99.90
16728;DHT22;8482;54.396;18.590;2022-09-21T20:27:45;12.60;99.90